Midway, AR

1:52 PM CST on March 02, 2015 (GMT -0600)
APRSWXNET Gassville AR US | Change Station
CLOSE
Current Station
Personal Weather Station
Location: Gassville, AR
Elevation: 446 ft
Nearby Weather Stations
Active Advisory: Winter Storm Watch

Elev 446 ft 36.26 °N, 92.49 °W | Updated 41 minutes ago

Overcast
Overcast
37 °F
Feels Like 37 °F
N
2
Wind Variable Wind from NE
Gusts 0.0 mph

Today
High -- | Low -- °F
--% Chance of Precip.
Yesterday
High -- | Low -- °F
Precip. -- in
6:39 AM 6:05 PM
Waxing Gibbous, 92% visible
Pressure 30.40 in
Visibility 9.0 miles
Clouds Overcast 3100 ft
Windchill 37 °F
Dew Point 24 °F
Humidity 60%
Rainfall -999.00 in
Snow Depth Not available.
UV 2 out of 12
Pollen 3.60 out of 12
Air Quality Not available.
Flu Activity Not available.
METAR KBPK 021853Z AUTO 11006KT 9SM OVC031 02/M05 A3038 RMK AO2 SLP295 T00221050

More Conditions Fewer Conditions

Pressure 30.40 in
Visibility 9.0 miles
Clouds Overcast 3100 ft
Windchill 37 °F
Dew Point 24 °F
Humidity 60%
Rainfall -999.00 in
Snow Depth Not available.
UV 2 out of 12
Pollen 3.60 out of 12
Air Quality Not available.
Flu Activity Not available.
METAR KBPK 021853Z AUTO 11006KT 9SM OVC031 02/M05 A3038 RMK AO2 SLP295 T00221050

More Conditions Fewer Conditions

10-Day Weather Forecast

Almanac

Astronomy

Mar. 02, 2015 Rise Set
Actual Time
Civil Twilight
Nautical Twilight
Astronomical Twilight
Moon
Length of Visible Light
Length of Day
Tomorrow will be .
, % of the Moon is Illuminated

Today's Extremes

State Highs State Lows

Community

WunderPhotos

Upload Photos

1,801,922 photos uploaded!

WunderBlogs® & News

Nearby

Air Quality

  Air Quality AQ Index Pollutant
Not available.

Snow Depth

Station Depth Elevation

Earthquake Activity

City Distance Mag. Time & Date
Minimum magnitude displayed is 2.5.

Coastal Water Temperatures

Place Temperature

Nearby Weather Stations

Winter Storm Watch
Statement as of 4:00 AM CST on March 02, 2015

... Winter Storm Watch in effect from Wednesday morning through
late Wednesday night...

The National Weather Service in Little Rock has issued a Winter
Storm Watch... which is in effect from Wednesday morning through
late Wednesday night.

* Event... sleet and snow will spread across the state from north
to south on Wednesday. Wintry precipitation will initially
start as sleet before quickly transitioning to snow.

* Areas affected... locations north of a line from Jasper... to
Mountain View... to Batesville... to Newport.

* Timing... sleet will begin Wednesday morning and transition to
snow before midday... with snow continuing through late Wednesday
night or early Thursday morning.

* Impacts... accumulating snow will likely cause travel issues on
area roadways.


Precautionary/preparedness actions...

A Winter Storm Watch means there is a potential for significant
snow... sleet... or ice accumulations that may impact travel.
Continue to monitor the latest forecasts.